createdAt,value
2019-02-27T07:12:55.315Z,1007.97
2019-02-27T07:13:54.389Z,1007.93
2019-02-27T07:14:54.375Z,1007.95
2019-02-27T07:15:55.676Z,1007.97
2019-02-27T07:16:57.181Z,1007.91
2019-02-27T07:17:54.308Z,1007.88
2019-02-27T07:18:54.276Z,1007.92
2019-02-27T07:19:54.242Z,1007.84
2019-02-27T07:20:55.597Z,1007.88
2019-02-27T07:21:54.482Z,1007.88
2019-02-27T07:22:54.151Z,1007.88
2019-02-27T07:23:57.741Z,1007.86
2019-02-27T07:24:54.150Z,1007.81
2019-02-27T07:25:57.757Z,1007.75
2019-02-27T07:26:57.778Z,1007.85
2019-02-27T07:27:57.736Z,1007.76
2019-02-27T07:28:57.726Z,1007.76
2019-02-27T07:29:57.714Z,1007.78
2019-02-27T07:30:57.716Z,1007.75
2019-02-27T07:31:57.695Z,1007.70
2019-02-27T07:32:57.705Z,1007.76
2019-02-27T07:33:57.672Z,1007.73
2019-02-27T07:34:57.661Z,1007.70
2019-02-27T07:35:57.648Z,1007.73
2019-02-27T07:36:57.638Z,1007.75
2019-02-27T07:37:57.651Z,1007.71
2019-02-27T07:38:58.300Z,1007.69
2019-02-27T07:39:57.608Z,1007.74
2019-02-27T07:40:57.594Z,1007.72
2019-02-27T07:41:57.584Z,1007.68
2019-02-27T07:42:57.597Z,1007.74
2019-02-27T07:43:57.564Z,1007.72
2019-02-27T07:44:57.553Z,1007.74
2019-02-27T07:45:57.542Z,1007.75
2019-02-27T07:46:58.081Z,1007.72
2019-02-27T07:47:57.543Z,1007.84
2019-02-27T07:48:57.512Z,1007.80
2019-02-27T07:49:57.505Z,1007.82
2019-02-27T07:50:57.493Z,1007.84
2019-02-27T07:51:58.072Z,1007.85
2019-02-27T07:52:57.521Z,1007.86
2019-02-27T07:53:57.458Z,1007.84
2019-02-27T07:54:57.449Z,1007.93
2019-02-27T07:55:57.437Z,1007.83
2019-02-27T07:56:57.425Z,1007.86
2019-02-27T07:57:58.696Z,1007.78
2019-02-27T07:58:57.407Z,1007.78
2019-02-27T07:59:57.392Z,1007.75
2019-02-27T08:00:57.385Z,1007.71
2019-02-27T08:01:57.371Z,1007.74
2019-02-27T08:02:57.384Z,1007.72
2019-02-27T08:03:57.349Z,1007.66
2019-02-27T08:04:57.342Z,1007.78
2019-02-27T08:05:59.853Z,1007.75
2019-02-27T08:06:58.320Z,1007.73
2019-02-27T08:07:57.330Z,1007.77
2019-02-27T08:08:57.853Z,1007.76
2019-02-27T08:09:57.284Z,1007.74
2019-02-27T08:10:57.273Z,1007.73
2019-02-27T08:11:57.262Z,1007.71
2019-02-27T08:12:57.286Z,1007.84
2019-02-27T08:13:57.245Z,1007.80
2019-02-27T08:14:57.236Z,1007.80
2019-02-27T08:15:57.423Z,1007.84
2019-02-27T08:16:58.078Z,1007.84
2019-02-27T08:17:58.581Z,1007.78
2019-02-27T08:18:57.212Z,1007.83
2019-02-27T08:19:57.177Z,1007.84
2019-02-27T08:20:57.172Z,1007.84
2019-02-27T08:21:57.158Z,1007.82
2019-02-27T08:22:57.911Z,1007.88
2019-02-27T08:23:57.162Z,1007.78
2019-02-27T08:24:57.127Z,1007.82
2019-02-27T08:25:57.116Z,1007.83
2019-02-27T08:26:57.103Z,1007.89
2019-02-27T08:27:57.094Z,1007.78
2019-02-27T08:28:57.111Z,1007.80
2019-02-27T08:29:57.079Z,1007.74
2019-02-27T08:30:57.061Z,1007.85
2019-02-27T08:32:00.793Z,1007.78
2019-02-27T08:32:57.037Z,1007.76
2019-02-27T08:33:57.056Z,1007.73
2019-02-27T08:34:57.018Z,1007.71
2019-02-27T08:35:57.009Z,1007.75
2019-02-27T08:36:56.995Z,1007.73
2019-02-27T08:38:02.646Z,1007.77
2019-02-27T08:38:57.996Z,1007.68
2019-02-27T08:39:56.964Z,1007.73
2019-02-27T08:40:58.338Z,1007.71
2019-02-27T08:41:56.948Z,1007.71
2019-02-27T08:42:56.929Z,1007.68
2019-02-27T08:43:56.943Z,1007.70
2019-02-27T08:44:56.909Z,1007.70
2019-02-27T08:45:56.904Z,1007.68
2019-02-27T08:46:56.887Z,1007.70
2019-02-27T08:47:56.880Z,1007.66
2019-02-27T08:48:56.896Z,1007.64
2019-02-27T08:49:58.020Z,1007.64
2019-02-27T08:50:56.845Z,1007.64
2019-02-27T08:51:56.837Z,1007.64
2019-02-27T08:52:57.931Z,1007.65
2019-02-27T08:53:59.259Z,1007.66
2019-02-27T08:54:56.802Z,1007.63
2019-02-27T08:55:56.796Z,1007.62
2019-02-27T08:56:56.781Z,1007.57
2019-02-27T08:57:57.139Z,1007.55
2019-02-27T08:58:56.787Z,1007.58
2019-02-27T08:59:56.751Z,1007.58
2019-02-27T09:00:56.740Z,1007.56
2019-02-27T09:01:56.732Z,1007.54
2019-02-27T09:02:56.721Z,1007.47
2019-02-27T09:03:56.729Z,1007.49
2019-02-27T09:04:56.728Z,1007.52
2019-02-27T09:05:56.693Z,1007.48
2019-02-27T09:07:02.108Z,1007.49
2019-02-27T09:07:57.668Z,1007.45
2019-02-27T09:08:56.686Z,1007.47
2019-02-27T09:09:56.649Z,1007.46
2019-02-27T09:10:56.637Z,1007.44
2019-02-27T09:11:56.625Z,1007.44
2019-02-27T09:13:05.061Z,1007.38
2019-02-27T09:13:57.642Z,1007.43
2019-02-27T09:14:56.592Z,1007.39
2019-02-27T09:15:56.581Z,1007.33
2019-02-27T09:16:56.569Z,1007.35
2019-02-27T09:17:59.180Z,1007.33
2019-02-27T09:18:57.545Z,1007.27
2019-02-27T09:19:56.560Z,1007.20
2019-02-27T09:20:56.526Z,1007.21
2019-02-27T09:21:56.514Z,1007.21
2019-02-27T09:22:56.510Z,1007.16
2019-02-27T09:23:56.496Z,1007.14
2019-02-27T09:24:57.208Z,1007.18
2019-02-27T09:25:57.457Z,1007.16
2019-02-27T09:26:56.462Z,1007.13
2019-02-27T09:27:56.459Z,1007.15
2019-02-27T09:28:56.442Z,1007.02
2019-02-27T09:29:56.455Z,1007.13
2019-02-27T09:30:56.421Z,1007.08
2019-02-27T09:31:56.409Z,1007.07
2019-02-27T09:32:56.402Z,1007.05
2019-02-27T09:33:56.387Z,1007.07
2019-02-27T09:34:57.039Z,1007.07
2019-02-27T09:35:56.366Z,1007.11
2019-02-27T09:36:56.359Z,1007.01
2019-02-27T09:37:56.344Z,1007.03
2019-02-27T09:38:57.620Z,1007.05
2019-02-27T09:39:56.352Z,1007.07
2019-02-27T09:40:56.315Z,1007.04
2019-02-27T09:41:56.301Z,1007.01
2019-02-27T09:42:56.291Z,1007.05
2019-02-27T09:43:58.670Z,1007.01
2019-02-27T09:44:56.291Z,1006.98
2019-02-27T09:45:56.258Z,1006.96
2019-02-27T09:46:56.251Z,1006.93
2019-02-27T09:47:59.613Z,1007.02
2019-02-27T09:48:56.226Z,1006.98
2019-02-27T09:49:56.241Z,1006.95
2019-02-27T09:50:57.013Z,1006.98
2019-02-27T09:51:56.929Z,1007.04
2019-02-27T09:52:56.188Z,1006.99
2019-02-27T09:53:56.179Z,1006.94
2019-02-27T09:54:56.185Z,1006.98
2019-02-27T09:55:56.154Z,1006.95
2019-02-27T09:56:56.139Z,1006.95
2019-02-27T09:57:56.133Z,1006.93
2019-02-27T09:58:56.120Z,1006.93
2019-02-27T09:59:56.131Z,1006.94
2019-02-27T10:00:59.170Z,1006.87
2019-02-27T10:01:57.304Z,1006.93
2019-02-27T10:02:58.076Z,1006.89
2019-02-27T10:03:56.065Z,1006.93
2019-02-27T10:04:56.076Z,1006.92
2019-02-27T10:05:56.065Z,1006.87
2019-02-27T10:06:56.032Z,1006.86
2019-02-27T10:07:57.433Z,1006.92
2019-02-27T10:08:56.399Z,1006.89
2019-02-27T10:09:56.004Z,1006.83
2019-02-27T10:10:56.013Z,1006.93
2019-02-27T10:11:55.978Z,1006.90
2019-02-27T10:12:55.969Z,1006.91
2019-02-27T10:13:55.958Z,1006.94
2019-02-27T10:14:55.947Z,1006.90
2019-02-27T10:16:00.463Z,1006.85
2019-02-27T10:16:56.923Z,1006.87
2019-02-27T10:17:55.917Z,1006.81
2019-02-27T10:18:55.942Z,1006.83
2019-02-27T10:19:55.895Z,1006.85
2019-02-27T10:20:55.907Z,1006.86
2019-02-27T10:21:55.872Z,1006.88
2019-02-27T10:22:55.861Z,1006.88
2019-02-27T10:23:55.849Z,1006.88
2019-02-27T10:24:55.838Z,1006.85
2019-02-27T10:25:55.850Z,1006.82
2019-02-27T10:26:55.817Z,1006.84
2019-02-27T10:27:55.809Z,1006.88
2019-02-27T10:28:55.795Z,1006.83
2019-02-27T10:29:55.785Z,1006.87
2019-02-27T10:30:55.795Z,1006.87
2019-02-27T10:31:58.196Z,1006.88
2019-02-27T10:32:55.755Z,1006.87
2019-02-27T10:33:55.741Z,1006.85
2019-02-27T10:34:55.734Z,1006.87
2019-02-27T10:35:55.743Z,1006.89
2019-02-27T10:36:55.731Z,1006.86
2019-02-27T10:37:55.706Z,1006.85
2019-02-27T10:38:55.691Z,1006.83
2019-02-27T10:39:55.680Z,1006.86
2019-02-27T10:40:55.692Z,1006.88
2019-02-27T10:41:55.655Z,1006.84
2019-02-27T10:42:55.645Z,1006.84
2019-02-27T10:43:56.482Z,1006.76
2019-02-27T10:44:55.625Z,1006.81
2019-02-27T10:45:55.636Z,1006.80
2019-02-27T10:46:59.491Z,1006.71
2019-02-27T10:47:55.593Z,1006.73
2019-02-27T10:48:55.587Z,1006.69
2019-02-27T10:49:55.570Z,1006.72
2019-02-27T10:50:55.592Z,1006.67
2019-02-27T10:51:55.549Z,1006.62
2019-02-27T10:52:55.557Z,1006.57
2019-02-27T10:53:55.527Z,1006.58
2019-02-27T10:54:55.518Z,1006.63
2019-02-27T10:55:56.121Z,1006.64
2019-02-27T10:56:56.314Z,1006.60
2019-02-27T10:57:55.489Z,1006.56
2019-02-27T10:58:55.474Z,1006.54
2019-02-27T10:59:55.463Z,1006.52
2019-02-27T11:00:58.155Z,1006.53
2019-02-27T11:01:56.467Z,1006.52
2019-02-27T11:02:55.434Z,1006.51
2019-02-27T11:03:55.422Z,1006.54
2019-02-27T11:04:55.423Z,1006.48
2019-02-27T11:05:55.662Z,1006.49
2019-02-27T11:06:55.414Z,1006.52
2019-02-27T11:07:55.431Z,1006.42
2019-02-27T11:08:55.366Z,1006.46
2019-02-27T11:09:55.361Z,1006.34
2019-02-27T11:10:55.346Z,1006.37
2019-02-27T11:11:55.364Z,1006.42
2019-02-27T11:12:55.325Z,1006.41
2019-02-27T11:13:55.469Z,1006.35
2019-02-27T11:14:55.305Z,1006.32
2019-02-27T11:15:55.294Z,1006.36
2019-02-27T11:16:55.313Z,1006.25
2019-02-27T11:17:55.273Z,1006.31
2019-02-27T11:18:55.259Z,1006.30
2019-02-27T11:19:55.247Z,1006.28
2019-02-27T11:20:58.225Z,1006.25
2019-02-27T11:21:58.320Z,1006.24
2019-02-27T11:22:55.216Z,1006.24
2019-02-27T11:23:55.205Z,1006.20
2019-02-27T11:24:55.198Z,1006.20
2019-02-27T11:25:57.004Z,1006.18
2019-02-27T11:26:56.931Z,1006.21
2019-02-27T11:27:55.173Z,1006.16
2019-02-27T11:28:55.155Z,1006.13
2019-02-27T11:29:59.588Z,1006.14
2019-02-27T11:30:56.131Z,1006.10
2019-02-27T11:31:55.141Z,1006.05
2019-02-27T11:32:57.809Z,1006.00
2019-02-27T11:33:55.101Z,1006.02
2019-02-27T11:34:55.087Z,1006.16
2019-02-27T11:35:55.077Z,1006.25
2019-02-27T11:36:55.090Z,1006.27
2019-02-27T11:37:55.127Z,1006.30
2019-02-27T11:38:56.629Z,1006.21
2019-02-27T11:39:55.037Z,1006.16
2019-02-27T11:40:55.025Z,1006.15
2019-02-27T11:41:55.041Z,1006.11
2019-02-27T11:42:55.006Z,1006.06
2019-02-27T11:43:54.990Z,1006.10
2019-02-27T11:44:54.987Z,1006.10
2019-02-27T11:45:57.703Z,1006.04
2019-02-27T11:46:58.946Z,1005.99
2019-02-27T11:47:54.980Z,1005.99
2019-02-27T11:48:57.026Z,1005.99
2019-02-27T11:49:54.928Z,1006.00
2019-02-27T11:50:54.922Z,1005.99
2019-02-27T11:51:56.929Z,1006.00
2019-02-27T11:52:54.920Z,1006.02
2019-02-27T11:53:54.883Z,1005.90
2019-02-27T11:54:54.876Z,1005.95
2019-02-27T11:55:54.862Z,1005.88
2019-02-27T11:56:56.914Z,1005.91
2019-02-27T11:57:54.870Z,1005.88
2019-02-27T11:58:54.841Z,1005.87
2019-02-27T11:59:54.820Z,1005.87
2019-02-27T12:00:54.812Z,1005.83
2019-02-27T12:01:56.121Z,1005.82
2019-02-27T12:02:54.812Z,1005.77
2019-02-27T12:03:54.782Z,1005.85
2019-02-27T12:04:56.663Z,1005.72
2019-02-27T12:05:54.761Z,1005.78
2019-02-27T12:06:54.748Z,1005.71
2019-02-27T12:07:54.773Z,1005.74
2019-02-27T12:08:59.457Z,1005.67
2019-02-27T12:09:55.721Z,1005.63
2019-02-27T12:10:54.708Z,1005.67
2019-02-27T12:11:54.700Z,1005.51
2019-02-27T12:12:59.710Z,1005.55
2019-02-27T12:13:55.674Z,1005.53
2019-02-27T12:14:54.667Z,1005.53
2019-02-27T12:15:54.656Z,1005.55
2019-02-27T12:16:54.650Z,1005.49
2019-02-27T12:17:59.951Z,1005.53
2019-02-27T12:18:55.628Z,1005.53
2019-02-27T12:19:54.616Z,1005.49
2019-02-27T12:20:54.610Z,1005.44
2019-02-27T12:21:54.596Z,1005.48
2019-02-27T12:22:54.623Z,1005.49
2019-02-27T12:23:54.586Z,1005.50
2019-02-27T12:24:54.565Z,1005.49
2019-02-27T12:25:54.562Z,1005.45
2019-02-27T12:26:54.551Z,1005.46
2019-02-27T12:27:54.539Z,1005.41
2019-02-27T12:28:54.548Z,1005.38
2019-02-27T12:29:54.516Z,1005.41
2019-02-27T12:30:54.505Z,1005.33
2019-02-27T12:31:54.496Z,1005.38
2019-02-27T12:32:56.664Z,1005.32
2019-02-27T12:33:54.498Z,1005.29
2019-02-27T12:34:54.465Z,1005.25
2019-02-27T12:35:54.459Z,1005.23
2019-02-27T12:36:54.448Z,1005.28
2019-02-27T12:37:54.435Z,1005.16
2019-02-27T12:38:54.446Z,1005.18
2019-02-27T12:39:54.414Z,1005.14
2019-02-27T12:40:58.246Z,1005.12
2019-02-27T12:41:54.396Z,1005.12
2019-02-27T12:42:54.389Z,1005.10
2019-02-27T12:43:54.398Z,1005.09
2019-02-27T12:44:54.687Z,1005.00
2019-02-27T12:45:54.357Z,1004.93
2019-02-27T12:46:54.344Z,1004.95
2019-02-27T12:47:54.337Z,1004.91
2019-02-27T12:48:54.346Z,1004.86
2019-02-27T12:49:54.916Z,1004.83
2019-02-27T12:50:54.314Z,1004.80
2019-02-27T12:51:54.299Z,1004.81
2019-02-27T12:52:54.289Z,1004.82
2019-02-27T12:53:55.169Z,1004.83
2019-02-27T12:54:54.271Z,1004.77
2019-02-27T12:55:54.260Z,1004.83
2019-02-27T12:56:54.248Z,1004.78
2019-02-27T12:57:54.236Z,1004.76
2019-02-27T12:58:58.189Z,1004.73
2019-02-27T12:59:54.232Z,1004.72
2019-02-27T13:00:54.208Z,1004.70
2019-02-27T13:01:54.199Z,1004.72
2019-02-27T13:02:54.187Z,1004.77
2019-02-27T13:03:54.200Z,1004.72
2019-02-27T13:04:54.167Z,1004.67
2019-02-27T13:05:54.162Z,1004.70
2019-02-27T13:06:54.146Z,1004.73
2019-02-27T13:07:54.136Z,1004.68
2019-02-27T13:08:55.844Z,1004.71
2019-02-27T13:09:58.430Z,1004.65
2019-02-27T13:10:55.108Z,1004.57
2019-02-27T13:11:54.098Z,1004.60
2019-02-27T13:12:54.090Z,1004.56
2019-02-27T13:13:54.077Z,1004.52
2019-02-27T13:14:54.089Z,1004.46
2019-02-27T13:15:54.060Z,1004.52
2019-02-27T13:16:54.050Z,1004.54
2019-02-27T13:17:57.415Z,1004.53
2019-02-27T13:18:54.027Z,1004.45
2019-02-27T13:19:54.045Z,1004.48
2019-02-27T13:20:54.007Z,1004.45
2019-02-27T13:21:55.049Z,1004.41
2019-02-27T13:22:53.990Z,1004.31
2019-02-27T13:23:55.739Z,1004.28
2019-02-27T13:24:53.989Z,1004.34
2019-02-27T13:25:53.959Z,1004.27
2019-02-27T13:26:53.950Z,1004.24
2019-02-27T13:27:53.939Z,1004.20
2019-02-27T13:28:53.928Z,1004.23
2019-02-27T13:29:55.477Z,1004.27
2019-02-27T13:30:54.907Z,1004.20
2019-02-27T13:31:53.895Z,1004.22
2019-02-27T13:32:53.886Z,1004.21
2019-02-27T13:33:53.877Z,1004.18
2019-02-27T13:34:53.890Z,1004.13
2019-02-27T13:35:56.565Z,1004.19
2019-02-27T13:36:53.847Z,1004.11
2019-02-27T13:37:53.835Z,1004.11
2019-02-27T13:38:53.826Z,1004.10
2019-02-27T13:39:53.836Z,1004.06
2019-02-27T13:40:53.804Z,1004.14
2019-02-27T13:41:53.799Z,1004.11
2019-02-27T13:42:53.874Z,1004.14
2019-02-27T13:43:53.774Z,1004.10
2019-02-27T13:44:53.785Z,1004.04
2019-02-27T13:45:53.756Z,1004.05
2019-02-27T13:46:56.641Z,1004.03
2019-02-27T13:47:53.739Z,1003.94
2019-02-27T13:48:53.722Z,1003.96
2019-02-27T13:49:53.736Z,1003.91
2019-02-27T13:50:53.703Z,1003.89
2019-02-27T13:51:53.693Z,1003.89
2019-02-27T13:52:53.691Z,1003.87
2019-02-27T13:53:53.672Z,1003.78
2019-02-27T13:54:53.693Z,1003.80
2019-02-27T13:55:53.684Z,1003.75
2019-02-27T13:56:53.643Z,1003.74
2019-02-27T13:57:58.794Z,1003.73
2019-02-27T13:58:54.636Z,1003.72
2019-02-27T13:59:53.647Z,1003.73
2019-02-27T14:00:54.495Z,1003.75
2019-02-27T14:01:53.593Z,1003.70
2019-02-27T14:02:53.577Z,1003.67
2019-02-27T14:03:53.568Z,1003.65
2019-02-27T14:04:53.737Z,1003.68
2019-02-27T14:05:53.572Z,1003.67
2019-02-27T14:06:53.535Z,1003.64
2019-02-27T14:07:57.264Z,1003.68
2019-02-27T14:08:53.532Z,1003.63
2019-02-27T14:09:53.505Z,1003.63
2019-02-27T14:10:54.031Z,1003.57
2019-02-27T14:11:53.482Z,1003.57
2019-02-27T14:12:53.473Z,1003.65
2019-02-27T14:13:53.462Z,1003.62
2019-02-27T14:14:55.811Z,1003.63
2019-02-27T14:15:53.488Z,1003.62
2019-02-27T14:16:53.432Z,1003.59
2019-02-27T14:17:53.424Z,1003.54
2019-02-27T14:18:54.148Z,1003.48
2019-02-27T14:19:55.288Z,1003.51
2019-02-27T14:20:53.413Z,1003.44
2019-02-27T14:21:53.382Z,1003.42
2019-02-27T14:22:53.368Z,1003.36
2019-02-27T14:23:53.357Z,1003.38
2019-02-27T14:24:54.856Z,1003.34
2019-02-27T14:25:53.361Z,1003.30
2019-02-27T14:26:53.328Z,1003.33
2019-02-27T14:27:53.316Z,1003.35
2019-02-27T14:28:55.144Z,1003.28
2019-02-27T14:29:53.295Z,1003.25
2019-02-27T14:30:53.316Z,1003.30
2019-02-27T14:31:53.277Z,1003.23
2019-02-27T14:32:53.263Z,1003.24
2019-02-27T14:33:54.234Z,1003.23
2019-02-27T14:34:53.246Z,1003.19
2019-02-27T14:35:53.256Z,1003.26
2019-02-27T14:36:53.225Z,1003.13
2019-02-27T14:37:53.214Z,1003.13
2019-02-27T14:38:53.423Z,1003.14
2019-02-27T14:39:53.192Z,1003.16
2019-02-27T14:40:53.207Z,1003.11
2019-02-27T14:41:53.172Z,1003.14
2019-02-27T14:42:54.868Z,1003.10
2019-02-27T14:43:53.150Z,1003.14
2019-02-27T14:44:53.141Z,1003.13
2019-02-27T14:45:53.278Z,1003.10
2019-02-27T14:46:53.119Z,1003.11
2019-02-27T14:47:53.108Z,1003.10
2019-02-27T14:48:53.102Z,1003.08
2019-02-27T14:49:53.089Z,1003.02
2019-02-27T14:50:53.078Z,1002.99
2019-02-27T14:51:53.090Z,1003.02
2019-02-27T14:52:53.057Z,1003.04
2019-02-27T14:53:55.713Z,1002.99
2019-02-27T14:54:53.048Z,1002.95
2019-02-27T14:55:53.026Z,1002.93
2019-02-27T14:56:53.040Z,1002.94
2019-02-27T14:57:53.004Z,1002.83
2019-02-27T14:58:53.011Z,1002.90
2019-02-27T14:59:52.982Z,1002.96
2019-02-27T15:00:52.974Z,1002.88
2019-02-27T15:01:52.989Z,1002.85
2019-02-27T15:02:55.682Z,1002.87
2019-02-27T15:03:52.977Z,1002.87
2019-02-27T15:04:52.932Z,1002.83
2019-02-27T15:05:52.922Z,1002.84
2019-02-27T15:06:52.954Z,1002.82
2019-02-27T15:07:54.636Z,1002.87
2019-02-27T15:08:58.028Z,1002.82
2019-02-27T15:09:53.887Z,1002.86
2019-02-27T15:10:52.871Z,1002.87
2019-02-27T15:11:52.880Z,1002.83
2019-02-27T15:12:55.176Z,1002.79
2019-02-27T15:13:52.840Z,1002.85
2019-02-27T15:14:52.830Z,1002.76
2019-02-27T15:15:52.820Z,1002.75
2019-02-27T15:16:52.829Z,1002.72
2019-02-27T15:17:52.800Z,1002.75
2019-02-27T15:18:55.155Z,1002.74
2019-02-27T15:19:52.776Z,1002.74
2019-02-27T15:20:52.766Z,1002.73
2019-02-27T15:21:52.779Z,1002.69
2019-02-27T15:22:53.654Z,1002.72
2019-02-27T15:23:52.737Z,1002.68
2019-02-27T15:24:52.729Z,1002.65
2019-02-27T15:25:52.718Z,1002.68
2019-02-27T15:26:52.732Z,1002.66
2019-02-27T15:27:52.693Z,1002.65
2019-02-27T15:28:52.703Z,1002.61
2019-02-27T15:29:52.675Z,1002.65
2019-02-27T15:30:52.664Z,1002.64
2019-02-27T15:31:54.775Z,1002.55
2019-02-27T15:32:52.643Z,1002.55
2019-02-27T15:33:54.033Z,1002.51
2019-02-27T15:34:52.623Z,1002.56
2019-02-27T15:35:55.037Z,1002.51
2019-02-27T15:36:52.624Z,1002.41
2019-02-27T15:37:52.590Z,1002.42
2019-02-27T15:38:52.579Z,1002.40
2019-02-27T15:39:55.028Z,1002.34
2019-02-27T15:40:52.566Z,1002.27
2019-02-27T15:41:52.662Z,1002.29
2019-02-27T15:42:52.537Z,1002.31
2019-02-27T15:43:59.650Z,1002.32
2019-02-27T15:44:53.518Z,1002.25
2019-02-27T15:45:52.510Z,1002.23
2019-02-27T15:46:53.513Z,1002.24
2019-02-27T15:47:52.515Z,1002.24
2019-02-27T15:48:52.886Z,1002.20
2019-02-27T15:49:52.490Z,1002.16
2019-02-27T15:50:56.327Z,1002.16
2019-02-27T15:51:52.447Z,1002.13
2019-02-27T15:52:52.461Z,1002.18
2019-02-27T15:53:52.441Z,1002.18
2019-02-27T15:54:52.416Z,1002.10
2019-02-27T15:55:52.402Z,1002.12
2019-02-27T15:56:52.391Z,1002.09
2019-02-27T15:57:53.748Z,1002.11
2019-02-27T15:58:52.368Z,1002.11
2019-02-27T15:59:52.379Z,1002.06
2019-02-27T16:00:53.333Z,1002.08
2019-02-27T16:01:52.339Z,1002.01
2019-02-27T16:02:52.350Z,1002.02
2019-02-27T16:03:52.321Z,1002.00
2019-02-27T16:04:55.505Z,1001.92
2019-02-27T16:05:52.294Z,1001.94
2019-02-27T16:06:52.282Z,1001.97
2019-02-27T16:07:52.312Z,1001.92
2019-02-27T16:08:57.336Z,1001.88
2019-02-27T16:09:53.253Z,1001.93
2019-02-27T16:10:55.164Z,1001.88
2019-02-27T16:11:52.597Z,1001.95
2019-02-27T16:12:52.218Z,1001.92
2019-02-27T16:13:52.229Z,1001.88
2019-02-27T16:14:52.214Z,1001.80
2019-02-27T16:15:52.186Z,1001.76
2019-02-27T16:16:54.104Z,1001.74
2019-02-27T16:17:53.165Z,1001.78
2019-02-27T16:18:52.175Z,1001.77
2019-02-27T16:19:54.003Z,1001.77
2019-02-27T16:20:52.132Z,1001.71
2019-02-27T16:21:56.980Z,1001.66
2019-02-27T16:22:53.113Z,1001.65
2019-02-27T16:23:52.124Z,1001.65
2019-02-27T16:24:52.090Z,1001.68
2019-02-27T16:25:53.708Z,1001.72
2019-02-27T16:26:52.069Z,1001.64
2019-02-27T16:27:52.064Z,1001.62
2019-02-27T16:28:52.072Z,1001.57
2019-02-27T16:29:54.122Z,1001.57
2019-02-27T16:30:52.027Z,1001.63
2019-02-27T16:31:52.016Z,1001.59
2019-02-27T16:32:52.010Z,1001.57
2019-02-27T16:33:52.019Z,1001.56
2019-02-27T16:34:51.983Z,1001.53
2019-02-27T16:35:51.978Z,1001.56
2019-02-27T16:36:51.962Z,1001.53
2019-02-27T16:37:56.323Z,1001.55
2019-02-27T16:38:52.962Z,1001.56
2019-02-27T16:39:51.930Z,1001.58
2019-02-27T16:40:52.578Z,1001.48
2019-02-27T16:41:51.914Z,1001.50
2019-02-27T16:42:51.898Z,1001.46
2019-02-27T16:43:51.919Z,1001.45
2019-02-27T16:44:54.355Z,1001.44
2019-02-27T16:45:52.872Z,1001.43
2019-02-27T16:46:51.856Z,1001.48
2019-02-27T16:47:53.985Z,1001.48
2019-02-27T16:48:52.862Z,1001.46
2019-02-27T16:49:51.824Z,1001.44
2019-02-27T16:50:51.816Z,1001.44
2019-02-27T16:51:51.800Z,1001.41
2019-02-27T16:52:51.805Z,1001.43
2019-02-27T16:53:52.586Z,1001.41
2019-02-27T16:54:51.791Z,1001.49
2019-02-27T16:55:51.759Z,1001.39
2019-02-27T16:56:51.789Z,1001.40
2019-02-27T16:57:56.482Z,1001.41
2019-02-27T16:58:52.729Z,1001.42
2019-02-27T16:59:51.746Z,1001.38
2019-02-27T17:00:54.366Z,1001.39
2019-02-27T17:01:51.696Z,1001.38
2019-02-27T17:02:51.684Z,1001.34
2019-02-27T17:03:59.448Z,1001.37
2019-02-27T17:04:52.685Z,1001.29
2019-02-27T17:05:51.650Z,1001.39
2019-02-27T17:06:52.303Z,1001.41
2019-02-27T17:07:51.631Z,1001.40
2019-02-27T17:08:51.618Z,1001.34
2019-02-27T17:09:51.636Z,1001.32
2019-02-27T17:10:52.070Z,1001.30
2019-02-27T17:11:51.588Z,1001.24
2019-02-27T17:12:51.579Z,1001.29
2019-02-27T17:13:51.571Z,1001.26
2019-02-27T17:14:51.575Z,1001.26
2019-02-27T17:15:51.546Z,1001.27
2019-02-27T17:16:51.532Z,1001.25
2019-02-27T17:17:53.387Z,1001.25
2019-02-27T17:18:51.520Z,1001.23
2019-02-27T17:19:53.082Z,1001.29
2019-02-27T17:20:51.493Z,1001.28
2019-02-27T17:21:51.492Z,1001.32
2019-02-27T17:22:51.473Z,1001.31
2019-02-27T17:23:51.471Z,1001.30
2019-02-27T17:24:52.145Z,1001.28
2019-02-27T17:25:51.439Z,1001.30
2019-02-27T17:26:51.431Z,1001.28
2019-02-27T17:27:53.463Z,1001.28
2019-02-27T17:28:51.697Z,1001.27
2019-02-27T17:29:51.421Z,1001.27
2019-02-27T17:30:51.387Z,1001.18
2019-02-27T17:31:55.298Z,1001.27
2019-02-27T17:32:51.378Z,1001.18
2019-02-27T17:33:51.350Z,1001.27
2019-02-27T17:34:51.393Z,1001.30
2019-02-27T17:35:53.084Z,1001.30
2019-02-27T17:36:51.322Z,1001.31
2019-02-27T17:37:51.308Z,1001.28
2019-02-27T17:38:51.296Z,1001.30
2019-02-27T17:39:51.287Z,1001.30
2019-02-27T17:40:52.498Z,1001.25
2019-02-27T17:41:52.236Z,1001.30
2019-02-27T17:42:53.509Z,1001.27
2019-02-27T17:43:51.616Z,1001.31
2019-02-27T17:44:51.237Z,1001.22
2019-02-27T17:45:51.244Z,1001.23
2019-02-27T17:46:51.706Z,1001.18
2019-02-27T17:47:51.205Z,1001.21
2019-02-27T17:48:51.189Z,1001.14
2019-02-27T17:49:51.181Z,1001.09
2019-02-27T17:50:51.193Z,1001.18
2019-02-27T17:51:51.160Z,1001.11
2019-02-27T17:52:51.149Z,1001.11
2019-02-27T17:53:51.134Z,1001.08
2019-02-27T17:54:51.123Z,1001.08
2019-02-27T17:55:51.142Z,1001.09
2019-02-27T17:56:51.110Z,1001.08
2019-02-27T17:57:51.096Z,1001.03
2019-02-27T17:58:51.080Z,1000.99
2019-02-27T17:59:51.073Z,1000.99
2019-02-27T18:00:51.445Z,1001.03
2019-02-27T18:01:51.053Z,1001.09
2019-02-27T18:02:51.042Z,1001.05
2019-02-27T18:03:51.033Z,1001.03
2019-02-27T18:04:53.692Z,1001.07
2019-02-27T18:05:51.007Z,1001.05
2019-02-27T18:06:51.021Z,1001.02
2019-02-27T18:07:50.983Z,1001.03
2019-02-27T18:08:52.412Z,1001.06
2019-02-27T18:09:50.967Z,1001.04
2019-02-27T18:10:50.972Z,1001.10
2019-02-27T18:11:52.524Z,1001.05
2019-02-27T18:12:51.697Z,1001.00
2019-02-27T18:13:50.930Z,1001.02
2019-02-27T18:14:50.925Z,1001.02
2019-02-27T18:15:53.198Z,1000.95
2019-02-27T18:16:50.892Z,1000.97
2019-02-27T18:17:50.874Z,1000.92
2019-02-27T18:18:50.864Z,1000.85
2019-02-27T18:19:50.990Z,1000.90
2019-02-27T18:20:50.877Z,1000.94
2019-02-27T18:21:50.839Z,1000.91
2019-02-27T18:22:50.864Z,1000.92
2019-02-27T18:23:50.810Z,1000.95
2019-02-27T18:24:50.799Z,1000.89
2019-02-27T18:25:50.787Z,1000.86
2019-02-27T18:26:51.286Z,1000.85
2019-02-27T18:27:50.775Z,1000.83
2019-02-27T18:28:50.761Z,1000.82
2019-02-27T18:29:50.775Z,1000.80
2019-02-27T18:30:53.118Z,1000.80
2019-02-27T18:31:50.761Z,1000.77
2019-02-27T18:32:50.717Z,1000.84
2019-02-27T18:33:50.701Z,1000.84
2019-02-27T18:34:54.254Z,1000.84
2019-02-27T18:35:50.682Z,1000.78
2019-02-27T18:36:51.273Z,1000.78
2019-02-27T18:37:54.285Z,1000.74
2019-02-27T18:38:50.651Z,1000.78
2019-02-27T18:39:50.638Z,1000.79
2019-02-27T18:40:50.632Z,1000.75
2019-02-27T18:41:50.648Z,1000.73
2019-02-27T18:42:55.210Z,1000.69
2019-02-27T18:43:52.907Z,1000.65
2019-02-27T18:44:50.584Z,1000.71
2019-02-27T18:45:50.789Z,1000.70
2019-02-27T18:46:50.585Z,1000.70
2019-02-27T18:47:50.558Z,1000.66
2019-02-27T18:48:50.539Z,1000.64
2019-02-27T18:49:52.276Z,1000.63
2019-02-27T18:50:50.524Z,1000.62
2019-02-27T18:51:50.531Z,1000.60
2019-02-27T18:52:50.497Z,1000.61
2019-02-27T18:53:50.489Z,1000.63
2019-02-27T18:54:50.478Z,1000.62
2019-02-27T18:55:50.481Z,1000.52
2019-02-27T18:56:50.480Z,1000.60
2019-02-27T18:57:50.457Z,1000.53
2019-02-27T18:58:51.990Z,1000.52
2019-02-27T18:59:51.428Z,1000.55
2019-02-27T19:00:50.440Z,1000.50
2019-02-27T19:01:50.425Z,1000.54
2019-02-27T19:02:51.991Z,1000.47
2019-02-27T19:03:50.380Z,1000.48
2019-02-27T19:04:50.371Z,1000.52
2019-02-27T19:05:50.363Z,1000.44
2019-02-27T19:06:50.396Z,1000.54
2019-02-27T19:07:53.675Z,1000.46
2019-02-27T19:08:50.365Z,1000.50
2019-02-27T19:09:50.316Z,1000.51
2019-02-27T19:10:50.306Z,1000.52
2019-02-27T19:11:50.908Z,1000.44
2019-02-27T19:12:50.309Z,1000.46
2019-02-27T19:13:50.285Z,1000.45
2019-02-27T19:14:50.319Z,1000.51
2019-02-27T19:15:50.253Z,1000.43
2019-02-27T19:16:52.162Z,1000.43
2019-02-27T19:17:50.257Z,1000.43